createdAt,value
2023-04-18T00:00:00.483Z,97
2023-04-18T00:10:00.452Z,127
2023-04-18T00:20:00.479Z,93
2023-04-18T00:30:00.465Z,76
2023-04-18T00:40:00.529Z,70
2023-04-18T00:50:00.513Z,84
2023-04-18T01:00:00.491Z,84
2023-04-18T01:10:00.453Z,59
2023-04-18T01:20:00.558Z,58
2023-04-18T01:30:00.446Z,58
2023-04-18T01:40:00.437Z,57
2023-04-18T01:50:00.451Z,48
2023-04-18T02:00:00.449Z,44
2023-04-18T02:10:00.430Z,45
2023-04-18T02:20:00.504Z,48
2023-04-18T02:30:00.451Z,50
2023-04-18T02:40:00.492Z,51
2023-04-18T02:50:00.498Z,48
2023-04-18T03:00:00.586Z,58
2023-04-18T03:10:00.474Z,56
2023-04-18T03:20:00.447Z,58
2023-04-18T03:30:00.475Z,47
2023-04-18T03:40:00.483Z,55
2023-04-18T03:50:00.455Z,52
2023-04-18T04:00:00.487Z,89
2023-04-18T04:10:00.479Z,99
2023-04-18T04:20:00.512Z,87
2023-04-18T04:30:00.454Z,129
2023-04-18T04:40:00.608Z,130
2023-04-18T04:50:00.453Z,119
2023-04-18T05:00:00.521Z,99
2023-04-18T05:10:00.494Z,93
2023-04-18T05:20:00.476Z,115
2023-04-18T05:30:00.484Z,109
2023-04-18T05:40:01.092Z,86
2023-04-18T05:50:00.482Z,122
2023-04-18T06:00:00.458Z,169
2023-04-18T06:10:00.469Z,169
2023-04-18T06:20:00.480Z,119
2023-04-18T06:30:00.465Z,64
2023-04-18T10:50:00.685Z,87
2023-04-18T11:00:00.597Z,100
2023-04-18T11:10:00.608Z,92
2023-04-18T11:20:00.613Z,165
2023-04-18T11:30:00.636Z,163
2023-04-18T11:40:00.618Z,32
2023-04-18T11:50:00.597Z,28
2023-04-18T12:00:00.631Z,102
2023-04-18T12:10:00.629Z,86
2023-04-18T12:20:00.623Z,49
2023-04-18T12:30:00.645Z,31
2023-04-18T12:40:00.646Z,10
2023-04-18T12:50:00.618Z,10
2023-04-18T13:00:00.860Z,8
2023-04-18T13:10:00.625Z,10
2023-04-18T13:20:00.624Z,14
2023-04-18T13:30:00.664Z,14
2023-04-18T13:40:00.621Z,32
2023-04-18T13:50:00.638Z,16
2023-04-18T14:00:00.634Z,6
2023-04-18T14:10:00.623Z,15
2023-04-18T14:20:00.640Z,14
2023-04-18T14:30:00.616Z,12
2023-04-18T14:40:00.648Z,220
2023-04-18T14:50:00.633Z,102
2023-04-18T15:00:00.631Z,174
2023-04-18T15:10:00.653Z,117
2023-04-18T15:20:00.653Z,106
2023-04-18T15:30:00.640Z,118
2023-04-18T15:40:00.634Z,175
2023-04-18T15:50:00.634Z,119
2023-04-18T16:00:00.642Z,136
2023-04-18T16:10:00.675Z,184
2023-04-18T16:20:00.642Z,104
2023-04-18T16:30:00.645Z,316
2023-04-18T16:40:00.667Z,338
2023-04-18T16:50:00.786Z,296
2023-04-18T17:00:00.645Z,367
2023-04-18T17:10:00.634Z,365
2023-04-18T17:20:00.701Z,378
2023-04-18T17:30:00.642Z,402
2023-04-18T17:40:00.623Z,314
2023-04-18T17:50:00.641Z,208
2023-04-18T18:00:00.644Z,273
2023-04-18T18:10:00.638Z,286
2023-04-18T18:20:00.645Z,369
2023-04-18T18:30:00.663Z,282
2023-04-18T18:40:00.633Z,259
2023-04-18T18:50:00.644Z,281
2023-04-18T19:00:00.648Z,263
2023-04-18T19:10:00.628Z,204
2023-04-18T19:20:00.638Z,185
2023-04-18T19:30:00.638Z,150
2023-04-18T19:40:00.744Z,219
2023-04-18T19:50:00.717Z,224
2023-04-18T20:00:00.670Z,220
2023-04-18T20:10:00.675Z,206
2023-04-18T20:20:00.637Z,143
2023-04-18T20:30:00.647Z,212
2023-04-18T20:40:00.617Z,202
2023-04-18T20:50:00.640Z,173
2023-04-18T21:00:00.655Z,196
2023-04-18T21:10:00.668Z,176
2023-04-18T21:20:00.672Z,158
2023-04-18T21:30:02.306Z,134
2023-04-18T21:40:00.661Z,65
2023-04-18T21:50:00.676Z,51
2023-04-18T22:00:00.682Z,49
2023-04-18T22:10:00.634Z,68
2023-04-18T22:20:00.623Z,73
2023-04-18T22:30:00.628Z,77
2023-04-18T22:40:00.639Z,75
2023-04-18T22:50:00.639Z,79
2023-04-18T23:00:00.639Z,53
2023-04-18T23:10:00.635Z,58
2023-04-18T23:20:00.650Z,48
2023-04-18T23:30:00.609Z,53
2023-04-18T23:40:00.665Z,52
2023-04-18T23:50:00.633Z,61
